aviador You're here:

KNFE Decoded Metar

in _UNIDENTIFIED
Report Time2017-10-20 14:56:00
UTC Time2017-10-20 15:55:37
Flight Rules vfr VFR
Wind360° at 03 kt
W.Decomp.*RWY 05: 2.3 kt HW 2 kt LCW
Visibility9999 m
Phenomena:N/A
Clouds:N/A
Expected CloudBase > 4,000 ft AGL from Temp-Dew spread
CeilingNone
Temp23°C (ISA +8)
Dew Point13°C (53% RH)
AAT22.8°C
QNH1024 hPa
Density Alt778 ft
Elevation13 ft
Report Wrong Elevation
Raw Report
KNFE 201456Z AUTO 36003KT 10SM CLR 23/13 A3024 RMK AO2 SLP243
T02330133 50009=

Extra information for KNFE:More info

Metar Taf Metar & Taf Last 4 Metars F.Rules Stats Wind Profile Meteogram Temp Stats Metar ALERT Operation Metar Decoded Social comments